Terminal Aerodrome Forecast
Issued by NWS

Home | Current Version | Previous Version | Text Only | Print | Product List | Glossary On
Versions: 1 2 3 4 5 6 7 8 9 10 11 12 13 14 15 16
000
FTUS41 KBTV 231724
TAFSLK
TAF
KSLK 231724Z 2318/2418 29009G17KT P6SM VCSH SCT040 BKN080
      TEMPO 2319/2323 3SM SHRA BR BKN035
     FM232300 31007KT P6SM VCSH SCT040 BKN120
     FM240300 00000KT P6SM SCT200
     FM240600 00000KT 1/2SM FG SCT001
     FM241200 29005KT P6SM SCT035=

USA.gov is the U.S. government's official web portal to all federal, state and local government web resources and services.